createdAt,value
2023-01-02T00:00:30.934Z,99544.81
2023-01-02T00:01:02.421Z,99552.47
2023-01-02T00:01:33.974Z,99542.38
2023-01-02T00:02:05.425Z,99550.56
2023-01-02T00:02:36.924Z,99561.78
2023-01-02T00:03:08.626Z,99549.47
2023-01-02T00:03:40.146Z,99556.53
2023-01-02T00:04:11.610Z,99549.25
2023-01-02T00:04:43.102Z,99548.66
2023-01-02T00:05:14.583Z,99541.28
2023-01-02T00:05:46.022Z,99544.00
2023-01-02T00:06:17.442Z,99535.59
2023-01-02T00:06:48.856Z,99541.38
2023-01-02T00:07:20.290Z,99543.78
2023-01-02T00:07:51.722Z,99550.88
2023-01-02T00:08:23.270Z,99542.69
2023-01-02T00:08:54.684Z,99532.38
2023-01-02T00:09:26.083Z,99526.00
2023-01-02T00:09:57.512Z,99532.88
2023-01-02T00:10:28.969Z,99541.88
2023-01-02T00:11:00.379Z,99549.25
2023-01-02T00:11:31.785Z,99541.56
2023-01-02T00:12:03.294Z,99551.38
2023-01-02T00:12:34.787Z,99546.72
2023-01-02T00:13:06.229Z,99544.00
2023-01-02T00:13:37.747Z,99544.81
2023-01-02T00:14:09.167Z,99541.56
2023-01-02T00:14:40.689Z,99544.31
2023-01-02T00:15:12.131Z,99556.31
2023-01-02T00:15:43.757Z,99562.59
2023-01-02T00:16:15.234Z,99551.16
2023-01-02T00:16:46.699Z,99553.09
2023-01-02T00:17:20.961Z,99551.69
2023-01-02T00:17:52.368Z,99550.88
2023-01-02T00:18:23.853Z,99543.59
2023-01-02T00:18:55.260Z,99541.38
2023-01-02T00:19:26.679Z,99548.13
2023-01-02T00:19:58.120Z,99541.88
2023-01-02T00:20:29.580Z,99550.88
2023-01-02T00:21:01.235Z,99566.72
2023-01-02T00:21:32.676Z,99562.38
2023-01-02T00:22:04.126Z,99556.91
2023-01-02T00:22:35.511Z,99546.31
2023-01-02T00:23:06.942Z,99539.44
2023-01-02T00:23:38.347Z,99542.19
2023-01-02T00:24:09.768Z,99549.84
2023-01-02T00:24:41.221Z,99550.66
2023-01-02T00:25:12.658Z,99547.31
2023-01-02T00:25:44.243Z,99550.34
2023-01-02T00:26:15.753Z,99548.13
2023-01-02T00:26:47.150Z,99539.16
2023-01-02T00:27:18.633Z,99537.31
2023-01-02T00:27:50.054Z,99536.72
2023-01-02T00:28:21.502Z,99551.47
2023-01-02T00:28:52.923Z,99544.09
2023-01-02T00:29:24.347Z,99543.78
2023-01-02T00:29:55.800Z,99551.75
2023-01-02T00:30:29.941Z,99532.88
2023-01-02T00:31:05.381Z,99538.13
2023-01-02T00:31:36.965Z,99535.91
2023-01-02T00:32:08.458Z,99544.59
2023-01-02T00:32:39.910Z,99536.94
2023-01-02T00:33:11.454Z,99537.22
2023-01-02T00:33:42.875Z,99540.75
2023-01-02T00:34:14.276Z,99549.25
2023-01-02T00:34:45.774Z,99539.94
2023-01-02T00:35:17.191Z,99535.91
2023-01-02T00:35:48.735Z,99540.66
2023-01-02T00:36:20.171Z,99569.53
2023-01-02T00:36:51.605Z,99559.13
2023-01-02T00:37:22.956Z,99540.03
2023-01-02T00:37:54.340Z,99537.31
2023-01-02T00:38:25.714Z,99548.53
2023-01-02T00:38:57.211Z,99542.97
2023-01-02T00:39:29.563Z,99543.78
2023-01-02T00:40:01.115Z,99542.19
2023-01-02T00:40:32.523Z,99553.97
2023-01-02T00:41:03.965Z,99542.78
2023-01-02T00:41:35.434Z,99556.13
2023-01-02T00:42:06.887Z,99554.78
2023-01-02T00:42:38.296Z,99545.50
2023-01-02T00:43:09.684Z,99542.47
2023-01-02T00:43:41.179Z,99550.66
2023-01-02T00:44:12.667Z,99552.56
2023-01-02T00:44:44.077Z,99549.03
2023-01-02T00:45:15.537Z,99549.53
2023-01-02T00:45:47.030Z,99542.78
2023-01-02T00:46:18.519Z,99545.50
2023-01-02T00:46:50.117Z,99553.69
2023-01-02T00:47:21.688Z,99557.53
2023-01-02T00:47:53.138Z,99550.44
2023-01-02T00:48:24.745Z,99554.78
2023-01-02T00:48:56.202Z,99543.28
2023-01-02T00:49:27.658Z,99555.50
2023-01-02T00:49:59.064Z,99550.66
2023-01-02T00:50:30.450Z,99546.00
2023-01-02T00:51:01.895Z,99540.25
2023-01-02T00:51:33.334Z,99542.78
2023-01-02T00:52:04.733Z,99540.56
2023-01-02T00:52:36.132Z,99546.00
2023-01-02T00:53:07.678Z,99551.75
2023-01-02T00:53:39.099Z,99552.28
2023-01-02T00:54:10.515Z,99548.75
2023-01-02T00:54:41.945Z,99546.00
2023-01-02T00:55:13.412Z,99561.56
2023-01-02T00:55:44.864Z,99559.03
2023-01-02T00:56:16.284Z,99552.28
2023-01-02T00:56:47.713Z,99551.16
2023-01-02T00:57:19.315Z,99550.66
2023-01-02T00:57:50.840Z,99566.72
2023-01-02T00:58:22.343Z,99544.09
2023-01-02T00:58:53.733Z,99551.16
2023-01-02T00:59:25.181Z,99551.16
2023-01-02T00:59:56.650Z,99545.19
2023-01-02T01:00:28.076Z,99549.34
2023-01-02T01:00:59.522Z,99551.56
2023-01-02T01:01:31.017Z,99552.88
2023-01-02T01:02:02.682Z,99556.72
2023-01-02T01:02:34.460Z,99542.78
2023-01-02T01:03:06.051Z,99551.47
2023-01-02T01:03:37.530Z,99555.50
2023-01-02T01:04:08.938Z,99540.56
2023-01-02T01:04:40.333Z,99536.72
2023-01-02T01:05:11.765Z,99537.81
2023-01-02T01:05:43.161Z,99546.81
2023-01-02T01:06:14.605Z,99546.31
2023-01-02T01:06:46.038Z,99540.34
2023-01-02T01:07:17.447Z,99536.00
2023-01-02T01:07:48.943Z,99545.81
2023-01-02T01:08:20.427Z,99546.59
2023-01-02T01:08:51.889Z,99547.63
2023-01-02T01:09:23.301Z,99537.63
2023-01-02T01:09:54.744Z,99536.72
2023-01-02T01:10:26.176Z,99544.69
2023-01-02T01:10:57.602Z,99543.78
2023-01-02T01:11:29.199Z,99539.75
2023-01-02T01:12:04.715Z,99532.38
2023-01-02T01:12:36.576Z,99553.38
2023-01-02T01:13:08.021Z,99543.28
2023-01-02T01:13:39.475Z,99535.59
2023-01-02T01:14:10.882Z,99540.84
2023-01-02T01:14:42.323Z,99540.03
2023-01-02T01:15:13.727Z,99527.72
2023-01-02T01:15:45.117Z,99534.00
2023-01-02T01:16:16.579Z,99533.19
2023-01-02T01:16:48.070Z,99541.16
2023-01-02T01:17:19.545Z,99540.34
2023-01-02T01:17:51.031Z,99529.94
2023-01-02T01:18:22.450Z,99541.16
2023-01-02T01:18:53.922Z,99535.91
2023-01-02T01:19:25.401Z,99542.78
2023-01-02T01:19:56.799Z,99531.88
2023-01-02T01:20:28.217Z,99551.25
2023-01-02T01:20:59.731Z,99535.41
2023-01-02T01:21:31.217Z,99529.94
2023-01-02T01:22:02.673Z,99534.28
2023-01-02T01:22:34.117Z,99537.03
2023-01-02T01:23:05.559Z,99527.44
2023-01-02T01:23:36.983Z,99529.66
2023-01-02T01:24:08.413Z,99539.94
2023-01-02T01:24:39.852Z,99522.78
2023-01-02T01:25:11.275Z,99524.69
2023-01-02T01:25:42.791Z,99529.84
2023-01-02T01:26:14.245Z,99518.53
2023-01-02T01:26:45.655Z,99533.47
2023-01-02T01:27:17.073Z,99521.47
2023-01-02T01:27:48.471Z,99531.06
2023-01-02T01:28:19.903Z,99520.44
2023-01-02T01:28:51.329Z,99527.72
2023-01-02T01:29:22.867Z,99520.06
2023-01-02T01:29:54.286Z,99525.81
2023-01-02T01:30:25.713Z,99523.19
2023-01-02T01:30:57.272Z,99516.00
2023-01-02T01:31:28.763Z,99524.78
2023-01-02T01:32:00.436Z,99520.34
2023-01-02T01:32:31.876Z,99519.53
2023-01-02T01:33:03.460Z,99519.34
2023-01-02T01:33:34.883Z,99520.97
2023-01-02T01:34:06.343Z,99524.19
2023-01-02T01:34:37.777Z,99521.75
2023-01-02T01:35:09.197Z,99517.94
2023-01-02T01:35:40.620Z,99526.91
2023-01-02T01:36:12.015Z,99513.06
2023-01-02T01:36:43.409Z,99523.09
2023-01-02T01:37:14.790Z,99529.84
2023-01-02T01:37:46.312Z,99523.38
2023-01-02T01:38:17.748Z,99519.25
2023-01-02T01:38:49.148Z,99528.34
2023-01-02T01:39:20.612Z,99525.81
2023-01-02T01:39:56.271Z,99529.34
2023-01-02T01:40:28.152Z,99526.31
2023-01-02T01:40:59.634Z,99523.88
2023-01-02T01:41:31.053Z,99526.91
2023-01-02T01:42:02.421Z,99531.88
2023-01-02T01:42:33.931Z,99530.66
2023-01-02T01:43:05.447Z,99529.13
2023-01-02T01:43:36.898Z,99517.94
2023-01-02T01:44:08.289Z,99517.63
2023-01-02T01:44:39.754Z,99522.06
2023-01-02T01:45:11.214Z,99522.78
2023-01-02T01:45:42.617Z,99528.25
2023-01-02T01:46:14.119Z,99524.19
2023-01-02T01:46:45.554Z,99532.88
2023-01-02T01:47:16.929Z,99526.91
2023-01-02T01:47:48.418Z,99528.25
2023-01-02T01:48:19.803Z,99519.25
2023-01-02T01:48:51.180Z,99527.44
2023-01-02T01:49:22.556Z,99529.34
2023-01-02T01:49:55.090Z,99533.69
2023-01-02T01:50:28.852Z,99530.97
2023-01-02T01:51:00.331Z,99527.13
2023-01-02T01:51:31.740Z,99531.34
2023-01-02T01:52:03.212Z,99525.59
2023-01-02T01:52:34.657Z,99537.03
2023-01-02T01:53:06.055Z,99532.06
2023-01-02T01:53:37.534Z,99536.13
2023-01-02T01:54:08.949Z,99526.81
2023-01-02T01:54:40.468Z,99537.03
2023-01-02T01:55:12.009Z,99540.56
2023-01-02T01:55:43.421Z,99531.88
2023-01-02T01:56:14.930Z,99529.94
2023-01-02T01:56:46.296Z,99532.66
2023-01-02T01:57:17.809Z,99548.75
2023-01-02T01:57:49.233Z,99530.47
2023-01-02T01:58:20.645Z,99539.75
2023-01-02T01:58:52.048Z,99531.25
2023-01-02T01:59:23.437Z,99531.25
2023-01-02T01:59:54.854Z,99519.53
2023-01-02T02:00:26.470Z,99537.31
2023-01-02T02:00:58.073Z,99532.66
2023-01-02T02:01:29.655Z,99526.72
2023-01-02T02:02:01.538Z,99535.69
2023-01-02T02:02:33.418Z,99531.88
2023-01-02T02:03:05.169Z,99542.19
2023-01-02T02:03:36.637Z,99530.47
2023-01-02T02:04:08.104Z,99535.91
2023-01-02T02:04:39.534Z,99571.88
2023-01-02T02:05:11.007Z,99545.81
2023-01-02T02:05:42.454Z,99543.59
2023-01-02T02:06:13.878Z,99535.59
2023-01-02T02:06:45.263Z,99553.16
2023-01-02T02:07:16.685Z,99537.53
2023-01-02T02:07:48.057Z,99544.91
2023-01-02T02:08:19.453Z,99528.53
2023-01-02T02:08:50.847Z,99536.50
2023-01-02T02:09:22.322Z,99542.97
2023-01-02T02:09:53.865Z,99545.19
2023-01-02T02:10:25.468Z,99557.53
2023-01-02T02:10:56.919Z,99540.56
2023-01-02T02:11:28.393Z,99546.81
2023-01-02T02:11:59.829Z,99550.44
2023-01-02T02:12:31.235Z,99546.59
2023-01-02T02:13:02.699Z,99532.75
2023-01-02T02:13:34.117Z,99553.16
2023-01-02T02:14:05.625Z,99535.19
2023-01-02T02:14:37.003Z,99551.25
2023-01-02T02:15:08.418Z,99541.16
2023-01-02T02:15:39.802Z,99539.53
2023-01-02T02:16:11.382Z,99534.09
2023-01-02T02:16:42.866Z,99534.59
2023-01-02T02:17:14.338Z,99526.41
2023-01-02T02:17:45.762Z,99545.19
2023-01-02T02:18:17.183Z,99543.78
2023-01-02T02:18:48.594Z,99563.78
2023-01-02T02:19:20.019Z,99543.88
2023-01-02T02:19:51.451Z,99541.16
2023-01-02T02:20:22.925Z,99540.03
2023-01-02T02:20:54.330Z,99543.59
2023-01-02T02:21:25.900Z,99540.84
2023-01-02T02:21:57.347Z,99544.91
2023-01-02T02:22:28.823Z,99551.16
2023-01-02T02:23:00.289Z,99542.47
2023-01-02T02:23:31.680Z,99545.19
2023-01-02T02:24:03.160Z,99539.53
2023-01-02T02:24:34.621Z,99541.16
2023-01-02T02:25:06.072Z,99541.47
2023-01-02T02:25:37.537Z,99546.91
2023-01-02T02:26:09.091Z,99547.13
2023-01-02T02:26:40.492Z,99556.13
2023-01-02T02:27:11.916Z,99537.03
2023-01-02T02:27:43.436Z,99536.22
2023-01-02T02:28:14.908Z,99536.50
2023-01-02T02:28:46.334Z,99542.78
2023-01-02T02:29:17.748Z,99535.09
2023-01-02T02:29:49.142Z,99542.97
2023-01-02T02:30:20.695Z,99542.69
2023-01-02T02:30:52.174Z,99541.38
2023-01-02T02:31:23.692Z,99530.47
2023-01-02T02:31:55.216Z,99546.22
2023-01-02T02:32:26.721Z,99533.38
2023-01-02T02:32:58.360Z,99538.34
2023-01-02T02:33:29.809Z,99535.69
2023-01-02T02:34:01.219Z,99533.47
2023-01-02T02:34:32.667Z,99534.59
2023-01-02T02:35:04.170Z,99537.31
2023-01-02T02:35:35.599Z,99535.91
2023-01-02T02:36:07.052Z,99531.25
2023-01-02T02:36:38.498Z,99532.88
2023-01-02T02:37:10.091Z,99554.19
2023-01-02T02:37:41.515Z,99535.91
2023-01-02T02:38:13.045Z,99543.78
2023-01-02T02:38:44.476Z,99543.50
2023-01-02T02:39:15.915Z,99539.16
2023-01-02T02:39:47.353Z,99542.69
2023-01-02T02:40:18.774Z,99546.22
2023-01-02T02:40:50.279Z,99542.69
2023-01-02T02:41:21.737Z,99535.91
2023-01-02T02:41:53.227Z,99536.72
2023-01-02T02:42:24.668Z,99534.50
2023-01-02T02:42:56.053Z,99542.19
2023-01-02T02:43:27.542Z,99546.22
2023-01-02T02:43:58.948Z,99543.78
2023-01-02T02:44:30.430Z,99540.75
2023-01-02T02:45:04.413Z,99548.44
2023-01-02T02:45:35.906Z,99538.53
2023-01-02T02:46:07.415Z,99532.28
2023-01-02T02:46:38.828Z,99531.25
2023-01-02T02:47:10.257Z,99529.34
2023-01-02T02:47:41.661Z,99541.88
2023-01-02T02:48:13.061Z,99536.72
2023-01-02T02:48:46.717Z,99525.00
2023-01-02T02:49:18.543Z,99532.38
2023-01-02T02:49:50.003Z,99538.34
2023-01-02T02:50:21.409Z,99539.44
2023-01-02T02:50:52.890Z,99542.19
2023-01-02T02:51:24.343Z,99540.84
2023-01-02T02:51:55.803Z,99535.09
2023-01-02T02:52:27.181Z,99530.25
2023-01-02T02:52:58.623Z,99526.41
2023-01-02T02:53:30.063Z,99532.38
2023-01-02T02:54:01.604Z,99528.25
2023-01-02T02:54:33.099Z,99526.91
2023-01-02T02:55:04.486Z,99545.19
2023-01-02T02:55:35.858Z,99534.28
2023-01-02T02:56:07.266Z,99519.25
2023-01-02T02:56:38.762Z,99516.31
2023-01-02T02:57:10.159Z,99520.34
2023-01-02T02:57:41.559Z,99516.81
2023-01-02T02:58:12.995Z,99512.69
2023-01-02T02:58:44.481Z,99525.81
2023-01-02T02:59:15.966Z,99521.97
2023-01-02T02:59:47.396Z,99521.97
2023-01-02T03:00:18.800Z,99526.31
2023-01-02T03:00:50.300Z,99521.97
2023-01-02T03:01:24.426Z,99509.16
2023-01-02T03:01:59.959Z,99514.59
2023-01-02T03:02:31.616Z,99511.56
2023-01-02T03:03:03.341Z,99518.13
2023-01-02T03:03:34.857Z,99519.75
2023-01-02T03:04:06.328Z,99513.50
2023-01-02T03:04:37.799Z,99507.53
2023-01-02T03:05:09.209Z,99514.59
2023-01-02T03:05:40.622Z,99513.78
2023-01-02T03:06:12.027Z,99515.91
2023-01-02T03:06:43.488Z,99520.66
2023-01-02T03:07:14.958Z,99509.44
2023-01-02T03:07:46.467Z,99520.34
2023-01-02T03:08:17.948Z,99511.38
2023-01-02T03:08:49.389Z,99516.81
2023-01-02T03:09:20.857Z,99511.06
2023-01-02T03:09:52.486Z,99512.25
2023-01-02T03:10:24.027Z,99513.28
2023-01-02T03:10:55.462Z,99515.41
2023-01-02T03:11:26.952Z,99502.88
2023-01-02T03:11:58.363Z,99508.63
2023-01-02T03:12:29.866Z,99509.44
2023-01-02T03:13:01.294Z,99516.00
2023-01-02T03:13:40.873Z,99523.88
2023-01-02T03:14:12.719Z,99528.34
2023-01-02T03:14:44.146Z,99514.69
2023-01-02T03:15:15.619Z,99518.44
2023-01-02T03:15:47.037Z,99520.34
2023-01-02T03:16:18.485Z,99527.44
2023-01-02T03:16:49.993Z,99518.44
2023-01-02T03:17:21.472Z,99524.69
2023-01-02T03:17:52.921Z,99525.50
2023-01-02T03:18:24.549Z,99524.69
2023-01-02T03:18:55.995Z,99519.25
2023-01-02T03:19:27.451Z,99521.47
2023-01-02T03:19:58.911Z,99520.88
2023-01-02T03:20:30.455Z,99520.66
2023-01-02T03:21:01.849Z,99519.25
2023-01-02T03:21:33.279Z,99530.16
2023-01-02T03:22:04.656Z,99521.97
2023-01-02T03:22:36.088Z,99535.91
2023-01-02T03:23:07.545Z,99528.25
2023-01-02T03:23:38.973Z,99512.16
2023-01-02T03:24:10.416Z,99505.59
2023-01-02T03:24:41.854Z,99517.31
2023-01-02T03:25:13.268Z,99509.94
2023-01-02T03:25:44.842Z,99509.44
2023-01-02T03:26:16.314Z,99521.16
2023-01-02T03:26:47.751Z,99514.91
2023-01-02T03:27:19.191Z,99513.88
2023-01-02T03:27:50.678Z,99511.16
2023-01-02T03:28:22.041Z,99526.09
2023-01-02T03:28:53.500Z,99505.59
2023-01-02T03:29:25.051Z,99529.03
2023-01-02T03:29:56.461Z,99519.03
2023-01-02T03:30:28.012Z,99519.84
2023-01-02T03:30:59.633Z,99522.38
2023-01-02T03:31:31.164Z,99518.03
2023-01-02T03:32:02.551Z,99509.75
2023-01-02T03:32:34.046Z,99520.97
2023-01-02T03:33:05.452Z,99508.63
2023-01-02T03:33:36.844Z,99508.63
2023-01-02T03:34:08.282Z,99499.94
2023-01-02T03:34:39.699Z,99502.56
2023-01-02T03:35:11.159Z,99497.44
2023-01-02T03:35:42.559Z,99508.34
2023-01-02T03:36:14.027Z,99522.47
2023-01-02T03:36:45.468Z,99503.69
2023-01-02T03:37:16.980Z,99524.19
2023-01-02T03:37:48.470Z,99506.72
2023-01-02T03:38:19.891Z,99503.69
2023-01-02T03:38:51.317Z,99508.13
2023-01-02T03:39:22.739Z,99492.06
2023-01-02T03:39:54.152Z,99505.31
2023-01-02T03:40:25.667Z,99502.97
2023-01-02T03:40:57.114Z,99505.19
2023-01-02T03:41:28.734Z,99497.72
2023-01-02T03:42:00.206Z,99497.53
2023-01-02T03:42:31.726Z,99507.53
2023-01-02T03:43:03.139Z,99502.38
2023-01-02T03:43:34.587Z,99507.81
2023-01-02T03:44:06.014Z,99491.16
2023-01-02T03:44:37.427Z,99493.19
2023-01-02T03:45:08.819Z,99491.47
2023-01-02T03:45:40.225Z,99492.06
2023-01-02T03:46:11.743Z,99516.81
2023-01-02T03:46:43.340Z,99499.13
2023-01-02T03:47:14.749Z,99494.19
2023-01-02T03:47:46.223Z,99497.22
2023-01-02T03:48:17.631Z,99498.84
2023-01-02T03:48:49.082Z,99502.69
2023-01-02T03:49:20.468Z,99514.09
2023-01-02T03:49:51.866Z,99512.78
2023-01-02T03:50:23.306Z,99525.00
2023-01-02T03:50:57.311Z,99520.97
2023-01-02T03:51:28.792Z,99518.72
2023-01-02T03:52:00.207Z,99530.25
2023-01-02T03:52:31.666Z,99521.47
2023-01-02T03:53:03.110Z,99521.75
2023-01-02T03:53:34.539Z,99526.72
2023-01-02T03:54:05.945Z,99524.19
2023-01-02T03:54:37.362Z,99524.19
2023-01-02T03:55:08.735Z,99525.00
2023-01-02T03:55:40.195Z,99531.78
2023-01-02T03:56:11.637Z,99522.28
2023-01-02T03:56:43.056Z,99548.75
2023-01-02T03:57:14.658Z,99538.13
2023-01-02T03:57:47.345Z,99541.06
2023-01-02T03:58:21.147Z,99538.34
2023-01-02T03:58:52.601Z,99538.34
2023-01-02T03:59:24.029Z,99542.38
2023-01-02T03:59:55.513Z,99538.34
2023-01-02T04:00:26.934Z,99537.03
2023-01-02T04:00:58.456Z,99543.78
2023-01-02T04:01:29.971Z,99532.28
2023-01-02T04:02:01.544Z,99541.88
2023-01-02T04:02:33.221Z,99536.94
2023-01-02T04:03:04.874Z,99536.13
2023-01-02T04:03:36.336Z,99543.19
2023-01-02T04:04:07.750Z,99540.56
2023-01-02T04:04:39.132Z,99549.47
2023-01-02T04:05:10.578Z,99535.31
2023-01-02T04:05:42.073Z,99535.31
2023-01-02T04:06:13.477Z,99530.66
2023-01-02T04:06:44.909Z,99528.25
2023-01-02T04:07:16.328Z,99525.81
2023-01-02T04:07:47.895Z,99530.16
2023-01-02T04:08:19.348Z,99531.25
2023-01-02T04:08:50.809Z,99533.69
2023-01-02T04:09:22.245Z,99537.75
2023-01-02T04:09:53.672Z,99546.53
2023-01-02T04:10:25.070Z,99538.63
2023-01-02T04:10:58.702Z,99527.22
2023-01-02T04:11:30.407Z,99528.25
2023-01-02T04:12:01.822Z,99508.63
2023-01-02T04:12:33.220Z,99532.88
2023-01-02T04:13:04.685Z,99523.00
2023-01-02T04:13:36.154Z,99529.03
2023-01-02T04:14:07.571Z,99537.31
2023-01-02T04:14:38.997Z,99531.56
2023-01-02T04:15:10.437Z,99528.34
2023-01-02T04:15:41.914Z,99525.81
2023-01-02T04:16:13.418Z,99524.41
2023-01-02T04:16:44.840Z,99536.94
2023-01-02T04:17:16.266Z,99551.47
2023-01-02T04:17:47.717Z,99526.63
2023-01-02T04:18:19.187Z,99533.47
2023-01-02T04:18:50.581Z,99545.19
2023-01-02T04:19:21.960Z,99524.19
2023-01-02T04:19:53.401Z,99534.50
2023-01-02T04:20:24.863Z,99536.41
2023-01-02T04:20:56.505Z,99531.78
2023-01-02T04:21:28.001Z,99528.53
2023-01-02T04:21:59.379Z,99534.00
2023-01-02T04:22:30.788Z,99550.56
2023-01-02T04:23:02.223Z,99545.19
2023-01-02T04:23:33.719Z,99532.16
2023-01-02T04:24:05.169Z,99542.19
2023-01-02T04:24:36.602Z,99532.38
2023-01-02T04:25:08.116Z,99533.19
2023-01-02T04:25:39.563Z,99528.25
2023-01-02T04:26:10.951Z,99532.97
2023-01-02T04:26:42.376Z,99535.09
2023-01-02T04:27:13.801Z,99544.59
2023-01-02T04:27:45.224Z,99533.19
2023-01-02T04:28:16.621Z,99540.56
2023-01-02T04:28:48.077Z,99543.78
2023-01-02T04:29:19.526Z,99542.19
2023-01-02T04:29:50.979Z,99535.31
2023-01-02T04:30:22.472Z,99542.19
2023-01-02T04:30:53.930Z,99543.78
2023-01-02T04:31:25.465Z,99539.66
2023-01-02T04:31:56.973Z,99547.63
2023-01-02T04:32:28.529Z,99551.75
2023-01-02T04:32:59.975Z,99566.72
2023-01-02T04:33:31.424Z,99564.28
2023-01-02T04:34:02.872Z,99563.28
2023-01-02T04:34:34.339Z,99556.91
2023-01-02T04:35:05.761Z,99562.97
2023-01-02T04:35:37.148Z,99568.34
2023-01-02T04:36:08.561Z,99554.69
2023-01-02T04:36:39.985Z,99554.69
2023-01-02T04:37:11.480Z,99552.28
2023-01-02T04:37:42.940Z,99557.81
2023-01-02T04:38:14.370Z,99547.94
2023-01-02T04:38:45.875Z,99559.66
2023-01-02T04:39:17.359Z,99555.59
2023-01-02T04:39:48.838Z,99565.69
2023-01-02T04:40:20.265Z,99555.91
2023-01-02T04:40:51.677Z,99564.59
2023-01-02T04:41:23.248Z,99564.00
2023-01-02T04:41:54.682Z,99562.38
2023-01-02T04:42:26.148Z,99546.81
2023-01-02T04:42:57.758Z,99544.59
2023-01-02T04:43:29.227Z,99548.13
2023-01-02T04:44:00.689Z,99550.34
2023-01-02T04:44:32.221Z,99537.22
2023-01-02T04:45:06.525Z,99541.16
2023-01-02T04:45:37.918Z,99541.38
2023-01-02T04:46:09.367Z,99541.56
2023-01-02T04:46:40.883Z,99542.78
2023-01-02T04:47:14.401Z,99544.91
2023-01-02T04:47:49.800Z,99533.69
2023-01-02T04:48:21.195Z,99538.13
2023-01-02T04:48:52.620Z,99523.09
2023-01-02T04:49:24.006Z,99539.94
2023-01-02T04:49:55.488Z,99534.50
2023-01-02T04:50:26.884Z,99527.63
2023-01-02T04:50:58.269Z,99537.75
2023-01-02T04:51:29.718Z,99529.66
2023-01-02T04:52:01.220Z,99538.03
2023-01-02T04:52:36.871Z,99547.03
2023-01-02T04:53:09.074Z,99522.28
2023-01-02T04:53:40.465Z,99530.97
2023-01-02T04:54:11.952Z,99529.66
2023-01-02T04:54:43.409Z,99528.53
2023-01-02T04:55:15.021Z,99538.34
2023-01-02T04:55:46.422Z,99537.53
2023-01-02T04:56:17.907Z,99542.19
2023-01-02T04:56:49.347Z,99551.97
2023-01-02T04:57:20.792Z,99541.38
2023-01-02T04:57:52.251Z,99543.78
2023-01-02T04:58:23.682Z,99531.78
2023-01-02T04:58:55.092Z,99546.00
2023-01-02T04:59:26.540Z,99545.19
2023-01-02T04:59:57.972Z,99542.47
2023-01-02T05:00:29.404Z,99549.53
2023-01-02T05:01:00.811Z,99546.00
2023-01-02T05:01:32.386Z,99545.41
2023-01-02T05:02:04.042Z,99546.59
2023-01-02T05:02:35.586Z,99540.84
2023-01-02T05:03:07.187Z,99552.06
2023-01-02T05:03:38.646Z,99546.00
2023-01-02T05:04:10.155Z,99549.25
2023-01-02T05:04:41.570Z,99560.16
2023-01-02T05:05:13.001Z,99547.84
2023-01-02T05:05:44.424Z,99548.75
2023-01-02T05:06:15.847Z,99550.34
2023-01-02T05:06:47.289Z,99556.31
2023-01-02T05:07:18.698Z,99543.50
2023-01-02T05:07:50.091Z,99546.22
2023-01-02T05:08:21.597Z,99551.47
2023-01-02T05:08:53.027Z,99549.03
2023-01-02T05:09:24.505Z,99547.41
2023-01-02T05:09:55.935Z,99562.97
2023-01-02T05:10:27.346Z,99550.97
2023-01-02T05:10:58.806Z,99564.81
2023-01-02T05:11:30.285Z,99541.06
2023-01-02T05:12:01.714Z,99543.19
2023-01-02T05:12:33.134Z,99548.13
2023-01-02T05:13:04.578Z,99537.03
2023-01-02T05:13:36.137Z,99547.72
2023-01-02T05:14:08.077Z,99550.34
2023-01-02T05:14:39.566Z,99548.44
2023-01-02T05:15:10.967Z,99559.66
2023-01-02T05:15:42.482Z,99546.53
2023-01-02T05:16:14.054Z,99563.19
2023-01-02T05:16:45.612Z,99553.69
2023-01-02T05:17:17.035Z,99551.75
2023-01-02T05:17:48.463Z,99560.47
2023-01-02T05:18:19.906Z,99555.50
2023-01-02T05:18:51.381Z,99557.44
2023-01-02T05:19:22.790Z,99559.75
2023-01-02T05:19:54.316Z,99570.25
2023-01-02T05:20:25.774Z,99561.78
2023-01-02T05:20:57.319Z,99565.59
2023-01-02T05:21:28.781Z,99562.59
2023-01-02T05:22:00.288Z,99559.56
2023-01-02T05:22:31.712Z,99570.75
2023-01-02T05:23:03.207Z,99570.75
2023-01-02T05:23:34.682Z,99567.53
2023-01-02T05:24:06.168Z,99568.03
2023-01-02T05:24:37.660Z,99568.84
2023-01-02T05:25:09.090Z,99572.97
2023-01-02T05:25:40.565Z,99569.16
2023-01-02T05:26:11.949Z,99564.00
2023-01-02T05:26:43.363Z,99561.47
2023-01-02T05:27:14.826Z,99576.22
2023-01-02T05:27:46.210Z,99582.28
2023-01-02T05:28:17.692Z,99571.38
2023-01-02T05:28:49.075Z,99570.84
2023-01-02T05:29:20.572Z,99594.81
2023-01-02T05:29:52.001Z,99576.53
2023-01-02T05:30:23.395Z,99576.53
2023-01-02T05:30:54.873Z,99584.19
2023-01-02T05:31:26.361Z,99577.53
2023-01-02T05:31:58.089Z,99581.38
2023-01-02T05:32:29.492Z,99580.34
2023-01-02T05:33:00.992Z,99583.59
2023-01-02T05:33:32.400Z,99574.31
2023-01-02T05:34:03.948Z,99580.28
2023-01-02T05:34:35.534Z,99574.91
2023-01-02T05:35:07.003Z,99580.97
2023-01-02T05:35:38.398Z,99584.19
2023-01-02T05:36:09.802Z,99582.28
2023-01-02T05:36:41.282Z,99584.69
2023-01-02T05:37:12.711Z,99579.75
2023-01-02T05:37:44.173Z,99576.72
2023-01-02T05:38:15.622Z,99577.03
2023-01-02T05:38:47.095Z,99586.84
2023-01-02T05:39:18.583Z,99568.56
2023-01-02T05:39:49.983Z,99580.66
2023-01-02T05:40:21.388Z,99579.03
2023-01-02T05:40:52.823Z,99576.31
2023-01-02T05:41:24.272Z,99584.50
2023-01-02T05:41:55.671Z,99579.75
2023-01-02T05:42:27.042Z,99587.44
2023-01-02T05:42:58.590Z,99584.69
2023-01-02T05:43:30.137Z,99580.34
2023-01-02T05:44:01.581Z,99588.75
2023-01-02T05:44:33.054Z,99583.28
2023-01-02T05:45:04.909Z,99594.50
2023-01-02T05:45:36.357Z,99585.22
2023-01-02T05:46:07.890Z,99584.41
2023-01-02T05:46:39.433Z,99579.53
2023-01-02T05:47:14.884Z,99587.44
2023-01-02T05:47:47.851Z,99594.59
2023-01-02T05:48:19.288Z,99578.13
2023-01-02T05:48:50.771Z,99583.91
2023-01-02T05:49:22.248Z,99583.91
2023-01-02T05:49:53.738Z,99578.75
2023-01-02T05:50:25.184Z,99576.00
2023-01-02T05:50:56.690Z,99577.72
2023-01-02T05:51:28.150Z,99591.88
2023-01-02T05:51:59.582Z,99584.78
2023-01-02T05:52:31.010Z,99586.72
2023-01-02T05:53:02.451Z,99585.81
2023-01-02T05:53:33.822Z,99586.63
2023-01-02T05:54:05.237Z,99589.66
2023-01-02T05:54:36.685Z,99577.94
2023-01-02T05:55:08.102Z,99602.78
2023-01-02T05:55:39.665Z,99591.28
2023-01-02T05:56:11.103Z,99578.44
2023-01-02T05:56:42.483Z,99582.88
2023-01-02T05:57:13.920Z,99582.88
2023-01-02T05:57:45.423Z,99578.44
2023-01-02T05:58:16.829Z,99571.16
2023-01-02T05:58:48.300Z,99593.69
2023-01-02T05:59:19.678Z,99577.63
2023-01-02T05:59:51.132Z,99584.19
2023-01-02T06:00:22.687Z,99579.53
2023-01-02T06:00:54.052Z,99586.91
2023-01-02T06:01:25.484Z,99581.97
2023-01-02T06:01:57.110Z,99581.16
2023-01-02T06:02:28.882Z,99585.50
2023-01-02T06:03:00.670Z,99583.59
2023-01-02T06:03:32.197Z,99585.22
2023-01-02T06:04:03.609Z,99585.81
2023-01-02T06:04:35.055Z,99591.28
2023-01-02T06:05:06.562Z,99577.63
2023-01-02T06:05:37.988Z,99584.19
2023-01-02T06:06:09.409Z,99604.00
2023-01-02T06:06:40.901Z,99578.75
2023-01-02T06:07:12.326Z,99587.44
2023-01-02T06:07:43.722Z,99583.38
2023-01-02T06:08:15.184Z,99590.16
2023-01-02T06:08:46.572Z,99588.84
2023-01-02T06:09:18.248Z,99579.47
2023-01-02T06:09:49.643Z,99588.25
2023-01-02T06:10:21.086Z,99590.97
2023-01-02T06:10:52.506Z,99591.78